sensor_id;sensor_type;location;lat;lon;timestamp;P1;durP1;ratioP1;P2;durP2;ratioP2
12120;SDS011;6124;59.460;17.908;2022-12-10T00:01:10;6.30;;;4.10;;
12120;SDS011;6124;59.460;17.908;2022-12-10T00:03:38;6.97;;;4.50;;
12120;SDS011;6124;59.460;17.908;2022-12-10T00:06:06;6.53;;;4.20;;
12120;SDS011;6124;59.460;17.908;2022-12-10T00:08:35;6.73;;;4.87;;
12120;SDS011;6124;59.460;17.908;2022-12-10T00:11:03;7.73;;;4.53;;
12120;SDS011;6124;59.460;17.908;2022-12-10T00:13:32;8.63;;;5.00;;
12120;SDS011;6124;59.460;17.908;2022-12-10T00:15:59;6.37;;;4.63;;
12120;SDS011;6124;59.460;17.908;2022-12-10T00:18:26;6.43;;;4.20;;
12120;SDS011;6124;59.460;17.908;2022-12-10T00:20:54;8.77;;;5.00;;
12120;SDS011;6124;59.460;17.908;2022-12-10T00:23:21;10.00;;;5.53;;
12120;SDS011;6124;59.460;17.908;2022-12-10T00:25:50;8.70;;;4.90;;
12120;SDS011;6124;59.460;17.908;2022-12-10T00:28:17;9.03;;;4.90;;
12120;SDS011;6124;59.460;17.908;2022-12-10T00:30:44;10.10;;;5.70;;
12120;SDS011;6124;59.460;17.908;2022-12-10T00:33:12;9.70;;;6.10;;
12120;SDS011;6124;59.460;17.908;2022-12-10T00:35:39;9.40;;;5.03;;
12120;SDS011;6124;59.460;17.908;2022-12-10T00:38:06;8.83;;;4.90;;
12120;SDS011;6124;59.460;17.908;2022-12-10T00:40:34;7.77;;;5.17;;
12120;SDS011;6124;59.460;17.908;2022-12-10T00:43:02;11.30;;;5.83;;
12120;SDS011;6124;59.460;17.908;2022-12-10T00:45:30;9.27;;;5.50;;
12120;SDS011;6124;59.460;17.908;2022-12-10T00:47:57;7.80;;;5.20;;
12120;SDS011;6124;59.460;17.908;2022-12-10T00:50:24;8.67;;;5.50;;
12120;SDS011;6124;59.460;17.908;2022-12-10T00:52:51;8.10;;;5.17;;
12120;SDS011;6124;59.460;17.908;2022-12-10T00:55:19;10.03;;;5.43;;
12120;SDS011;6124;59.460;17.908;2022-12-10T00:57:46;9.77;;;5.53;;
12120;SDS011;6124;59.460;17.908;2022-12-10T01:00:15;11.23;;;5.90;;
12120;SDS011;6124;59.460;17.908;2022-12-10T01:02:42;10.53;;;5.60;;
12120;SDS011;6124;59.460;17.908;2022-12-10T01:05:09;8.93;;;5.53;;
12120;SDS011;6124;59.460;17.908;2022-12-10T01:07:37;9.47;;;5.17;;
12120;SDS011;6124;59.460;17.908;2022-12-10T01:10:04;8.53;;;5.27;;
12120;SDS011;6124;59.460;17.908;2022-12-10T01:12:32;9.20;;;6.07;;
12120;SDS011;6124;59.460;17.908;2022-12-10T01:14:59;7.83;;;5.30;;
12120;SDS011;6124;59.460;17.908;2022-12-10T01:17:28;9.67;;;5.57;;
12120;SDS011;6124;59.460;17.908;2022-12-10T01:19:55;10.33;;;6.07;;
12120;SDS011;6124;59.460;17.908;2022-12-10T01:22:22;9.80;;;5.80;;
12120;SDS011;6124;59.460;17.908;2022-12-10T01:24:49;9.17;;;6.03;;
12120;SDS011;6124;59.460;17.908;2022-12-10T01:27:17;10.07;;;5.80;;
12120;SDS011;6124;59.460;17.908;2022-12-10T01:29:44;12.70;;;5.67;;
12120;SDS011;6124;59.460;17.908;2022-12-10T01:32:11;9.93;;;5.90;;
12120;SDS011;6124;59.460;17.908;2022-12-10T01:34:40;10.03;;;5.77;;
12120;SDS011;6124;59.460;17.908;2022-12-10T01:37:07;9.07;;;5.80;;
12120;SDS011;6124;59.460;17.908;2022-12-10T01:39:35;9.43;;;6.07;;
12120;SDS011;6124;59.460;17.908;2022-12-10T01:42:03;8.73;;;5.63;;
12120;SDS011;6124;59.460;17.908;2022-12-10T01:47:12;7.70;;;5.00;;
12120;SDS011;6124;59.460;17.908;2022-12-10T01:49:41;8.00;;;4.93;;
12120;SDS011;6124;59.460;17.908;2022-12-10T01:52:09;8.87;;;5.43;;
12120;SDS011;6124;59.460;17.908;2022-12-10T01:54:37;7.93;;;5.03;;
12120;SDS011;6124;59.460;17.908;2022-12-10T01:57:06;11.57;;;5.63;;
12120;SDS011;6124;59.460;17.908;2022-12-10T01:59:34;9.07;;;5.43;;
12120;SDS011;6124;59.460;17.908;2022-12-10T02:02:03;7.97;;;5.37;;
12120;SDS011;6124;59.460;17.908;2022-12-10T02:04:34;7.73;;;5.03;;
12120;SDS011;6124;59.460;17.908;2022-12-10T02:07:06;8.37;;;5.50;;
12120;SDS011;6124;59.460;17.908;2022-12-10T02:09:35;9.13;;;5.17;;
12120;SDS011;6124;59.460;17.908;2022-12-10T02:12:06;9.37;;;5.30;;
12120;SDS011;6124;59.460;17.908;2022-12-10T02:14:38;8.57;;;5.57;;
12120;SDS011;6124;59.460;17.908;2022-12-10T02:17:23;8.70;;;5.73;;
12120;SDS011;6124;59.460;17.908;2022-12-10T02:19:57;10.23;;;6.13;;
12120;SDS011;6124;59.460;17.908;2022-12-10T02:22:28;9.33;;;4.93;;
12120;SDS011;6124;59.460;17.908;2022-12-10T02:24:57;8.27;;;4.97;;
12120;SDS011;6124;59.460;17.908;2022-12-10T02:27:26;8.43;;;5.30;;
12120;SDS011;6124;59.460;17.908;2022-12-10T02:29:56;9.83;;;5.47;;
12120;SDS011;6124;59.460;17.908;2022-12-10T02:32:25;8.73;;;4.90;;
12120;SDS011;6124;59.460;17.908;2022-12-10T02:34:54;8.27;;;5.27;;
12120;SDS011;6124;59.460;17.908;2022-12-10T02:37:24;9.43;;;5.20;;
12120;SDS011;6124;59.460;17.908;2022-12-10T02:39:53;9.23;;;5.67;;
12120;SDS011;6124;59.460;17.908;2022-12-10T02:42:22;9.07;;;5.90;;
12120;SDS011;6124;59.460;17.908;2022-12-10T02:44:50;8.60;;;5.60;;
12120;SDS011;6124;59.460;17.908;2022-12-10T02:47:19;8.53;;;5.40;;
12120;SDS011;6124;59.460;17.908;2022-12-10T02:49:47;8.90;;;5.87;;
12120;SDS011;6124;59.460;17.908;2022-12-10T02:52:17;9.23;;;5.37;;
12120;SDS011;6124;59.460;17.908;2022-12-10T02:54:45;7.40;;;5.30;;
12120;SDS011;6124;59.460;17.908;2022-12-10T02:57:27;9.13;;;5.93;;
12120;SDS011;6124;59.460;17.908;2022-12-10T03:00:01;8.57;;;5.97;;
12120;SDS011;6124;59.460;17.908;2022-12-10T03:02:34;9.50;;;5.67;;
12120;SDS011;6124;59.460;17.908;2022-12-10T03:05:05;9.80;;;6.00;;
12120;SDS011;6124;59.460;17.908;2022-12-10T03:07:35;8.40;;;5.53;;
12120;SDS011;6124;59.460;17.908;2022-12-10T03:10:06;11.30;;;6.60;;
12120;SDS011;6124;59.460;17.908;2022-12-10T03:12:35;8.97;;;5.53;;
12120;SDS011;6124;59.460;17.908;2022-12-10T03:15:05;9.47;;;5.93;;
12120;SDS011;6124;59.460;17.908;2022-12-10T03:17:35;10.13;;;5.90;;
12120;SDS011;6124;59.460;17.908;2022-12-10T03:20:03;9.27;;;6.00;;
12120;SDS011;6124;59.460;17.908;2022-12-10T03:22:32;9.30;;;5.43;;
12120;SDS011;6124;59.460;17.908;2022-12-10T03:24:59;9.77;;;6.23;;
12120;SDS011;6124;59.460;17.908;2022-12-10T03:27:27;9.53;;;5.87;;
12120;SDS011;6124;59.460;17.908;2022-12-10T03:29:56;8.20;;;5.23;;
12120;SDS011;6124;59.460;17.908;2022-12-10T03:32:25;9.87;;;5.50;;
12120;SDS011;6124;59.460;17.908;2022-12-10T03:34:55;7.40;;;5.20;;
12120;SDS011;6124;59.460;17.908;2022-12-10T03:37:23;8.40;;;5.20;;
12120;SDS011;6124;59.460;17.908;2022-12-10T03:39:51;8.60;;;4.63;;
12120;SDS011;6124;59.460;17.908;2022-12-10T03:42:18;7.27;;;4.70;;
12120;SDS011;6124;59.460;17.908;2022-12-10T03:44:48;5.67;;;4.57;;
12120;SDS011;6124;59.460;17.908;2022-12-10T03:47:16;7.30;;;4.50;;
12120;SDS011;6124;59.460;17.908;2022-12-10T03:49:43;6.70;;;4.67;;
12120;SDS011;6124;59.460;17.908;2022-12-10T03:52:12;6.10;;;4.43;;
12120;SDS011;6124;59.460;17.908;2022-12-10T03:54:39;6.10;;;4.50;;
12120;SDS011;6124;59.460;17.908;2022-12-10T03:57:06;5.73;;;4.40;;
12120;SDS011;6124;59.460;17.908;2022-12-10T03:59:34;6.63;;;4.30;;
12120;SDS011;6124;59.460;17.908;2022-12-10T04:02:01;5.77;;;4.27;;
12120;SDS011;6124;59.460;17.908;2022-12-10T04:04:28;5.53;;;3.73;;
12120;SDS011;6124;59.460;17.908;2022-12-10T04:06:56;5.90;;;3.80;;
12120;SDS011;6124;59.460;17.908;2022-12-10T04:09:24;5.90;;;3.93;;
12120;SDS011;6124;59.460;17.908;2022-12-10T04:11:54;6.00;;;4.00;;
12120;SDS011;6124;59.460;17.908;2022-12-10T04:14:22;4.17;;;3.43;;
12120;SDS011;6124;59.460;17.908;2022-12-10T04:17:07;4.40;;;3.40;;
12120;SDS011;6124;59.460;17.908;2022-12-10T04:19:34;4.87;;;3.47;;
12120;SDS011;6124;59.460;17.908;2022-12-10T04:22:02;4.60;;;3.40;;
12120;SDS011;6124;59.460;17.908;2022-12-10T04:24:48;4.53;;;3.47;;
12120;SDS011;6124;59.460;17.908;2022-12-10T04:27:33;4.77;;;3.40;;
12120;SDS011;6124;59.460;17.908;2022-12-10T04:30:03;3.40;;;2.70;;
12120;SDS011;6124;59.460;17.908;2022-12-10T04:32:31;4.33;;;3.27;;
12120;SDS011;6124;59.460;17.908;2022-12-10T04:34:58;4.80;;;3.17;;
12120;SDS011;6124;59.460;17.908;2022-12-10T04:37:26;3.87;;;2.90;;
12120;SDS011;6124;59.460;17.908;2022-12-10T04:39:55;4.17;;;3.27;;
12120;SDS011;6124;59.460;17.908;2022-12-10T04:42:22;3.87;;;3.00;;
12120;SDS011;6124;59.460;17.908;2022-12-10T04:44:50;5.40;;;3.20;;
12120;SDS011;6124;59.460;17.908;2022-12-10T04:47:17;3.73;;;2.77;;
12120;SDS011;6124;59.460;17.908;2022-12-10T04:49:45;3.80;;;2.70;;
12120;SDS011;6124;59.460;17.908;2022-12-10T04:52:13;4.70;;;3.10;;
12120;SDS011;6124;59.460;17.908;2022-12-10T04:54:41;3.17;;;2.50;;
12120;SDS011;6124;59.460;17.908;2022-12-10T04:57:10;3.60;;;2.77;;
12120;SDS011;6124;59.460;17.908;2022-12-10T04:59:38;4.73;;;2.93;;
12120;SDS011;6124;59.460;17.908;2022-12-10T05:02:05;4.20;;;2.53;;
12120;SDS011;6124;59.460;17.908;2022-12-10T05:04:33;4.33;;;2.47;;
12120;SDS011;6124;59.460;17.908;2022-12-10T05:07:00;3.90;;;2.77;;
12120;SDS011;6124;59.460;17.908;2022-12-10T05:09:27;3.63;;;2.40;;
12120;SDS011;6124;59.460;17.908;2022-12-10T05:11:54;3.37;;;2.60;;
12120;SDS011;6124;59.460;17.908;2022-12-10T05:14:23;3.17;;;2.40;;
12120;SDS011;6124;59.460;17.908;2022-12-10T05:16:50;3.30;;;2.57;;
12120;SDS011;6124;59.460;17.908;2022-12-10T05:19:18;3.93;;;2.73;;
12120;SDS011;6124;59.460;17.908;2022-12-10T05:21:46;2.60;;;2.13;;
12120;SDS011;6124;59.460;17.908;2022-12-10T05:24:31;4.80;;;2.50;;
12120;SDS011;6124;59.460;17.908;2022-12-10T05:26:59;3.80;;;2.77;;
12120;SDS011;6124;59.460;17.908;2022-12-10T05:29:27;3.83;;;2.70;;
12120;SDS011;6124;59.460;17.908;2022-12-10T05:31:55;3.53;;;3.00;;
12120;SDS011;6124;59.460;17.908;2022-12-10T05:34:22;4.43;;;2.67;;
12120;SDS011;6124;59.460;17.908;2022-12-10T05:36:50;3.97;;;3.00;;
12120;SDS011;6124;59.460;17.908;2022-12-10T05:39:17;4.20;;;2.63;;
12120;SDS011;6124;59.460;17.908;2022-12-10T05:41:44;3.17;;;2.63;;
12120;SDS011;6124;59.460;17.908;2022-12-10T05:44:11;2.93;;;2.63;;
12120;SDS011;6124;59.460;17.908;2022-12-10T05:46:40;2.97;;;2.43;;
12120;SDS011;6124;59.460;17.908;2022-12-10T05:49:07;3.33;;;2.97;;
12120;SDS011;6124;59.460;17.908;2022-12-10T05:51:36;4.23;;;2.70;;
12120;SDS011;6124;59.460;17.908;2022-12-10T05:54:04;3.30;;;2.83;;
12120;SDS011;6124;59.460;17.908;2022-12-10T05:56:32;4.07;;;2.70;;
12120;SDS011;6124;59.460;17.908;2022-12-10T05:59:00;4.57;;;2.70;;
12120;SDS011;6124;59.460;17.908;2022-12-10T06:01:28;3.93;;;3.00;;
12120;SDS011;6124;59.460;17.908;2022-12-10T06:03:58;3.33;;;2.60;;
12120;SDS011;6124;59.460;17.908;2022-12-10T06:06:26;3.53;;;3.00;;
12120;SDS011;6124;59.460;17.908;2022-12-10T06:08:53;4.03;;;2.80;;
12120;SDS011;6124;59.460;17.908;2022-12-10T06:11:21;3.87;;;2.73;;
12120;SDS011;6124;59.460;17.908;2022-12-10T06:13:48;4.40;;;3.03;;
12120;SDS011;6124;59.460;17.908;2022-12-10T06:16:16;4.00;;;2.80;;
12120;SDS011;6124;59.460;17.908;2022-12-10T06:18:43;4.13;;;3.00;;
12120;SDS011;6124;59.460;17.908;2022-12-10T06:21:13;3.23;;;2.70;;
12120;SDS011;6124;59.460;17.908;2022-12-10T06:23:41;4.27;;;2.70;;
12120;SDS011;6124;59.460;17.908;2022-12-10T06:26:09;4.17;;;3.03;;
12120;SDS011;6124;59.460;17.908;2022-12-10T06:28:37;4.90;;;3.20;;
12120;SDS011;6124;59.460;17.908;2022-12-10T06:31:04;4.20;;;3.30;;
12120;SDS011;6124;59.460;17.908;2022-12-10T06:33:32;4.47;;;2.97;;
12120;SDS011;6124;59.460;17.908;2022-12-10T06:35:59;5.33;;;3.27;;
12120;SDS011;6124;59.460;17.908;2022-12-10T06:38:28;6.00;;;3.43;;
12120;SDS011;6124;59.460;17.908;2022-12-10T06:40:55;4.83;;;3.20;;
12120;SDS011;6124;59.460;17.908;2022-12-10T06:43:22;4.83;;;3.23;;
12120;SDS011;6124;59.460;17.908;2022-12-10T06:45:49;5.37;;;3.17;;
12120;SDS011;6124;59.460;17.908;2022-12-10T06:48:17;5.43;;;3.67;;
12120;SDS011;6124;59.460;17.908;2022-12-10T06:50:44;4.37;;;3.30;;
12120;SDS011;6124;59.460;17.908;2022-12-10T06:53:11;4.83;;;3.60;;
12120;SDS011;6124;59.460;17.908;2022-12-10T06:55:40;5.73;;;3.50;;
12120;SDS011;6124;59.460;17.908;2022-12-10T06:58:07;4.77;;;3.50;;
12120;SDS011;6124;59.460;17.908;2022-12-10T07:00:34;5.07;;;3.50;;
12120;SDS011;6124;59.460;17.908;2022-12-10T07:03:02;5.77;;;3.07;;
12120;SDS011;6124;59.460;17.908;2022-12-10T07:05:29;4.43;;;3.23;;
12120;SDS011;6124;59.460;17.908;2022-12-10T07:07:57;4.33;;;3.03;;
12120;SDS011;6124;59.460;17.908;2022-12-10T07:10:24;5.33;;;3.23;;
12120;SDS011;6124;59.460;17.908;2022-12-10T07:12:53;4.50;;;3.40;;
12120;SDS011;6124;59.460;17.908;2022-12-10T07:15:20;5.03;;;3.30;;
12120;SDS011;6124;59.460;17.908;2022-12-10T07:17:50;4.80;;;3.40;;
12120;SDS011;6124;59.460;17.908;2022-12-10T07:20:17;4.87;;;3.20;;
12120;SDS011;6124;59.460;17.908;2022-12-10T07:22:44;5.10;;;3.27;;
12120;SDS011;6124;59.460;17.908;2022-12-10T07:25:12;3.97;;;3.00;;
12120;SDS011;6124;59.460;17.908;2022-12-10T07:27:39;4.20;;;3.10;;
12120;SDS011;6124;59.460;17.908;2022-12-10T07:30:09;4.60;;;3.20;;
12120;SDS011;6124;59.460;17.908;2022-12-10T07:32:37;5.87;;;2.87;;
12120;SDS011;6124;59.460;17.908;2022-12-10T07:35:04;5.00;;;3.40;;
12120;SDS011;6124;59.460;17.908;2022-12-10T07:37:32;3.80;;;2.90;;
12120;SDS011;6124;59.460;17.908;2022-12-10T07:40:00;4.87;;;3.27;;
12120;SDS011;6124;59.460;17.908;2022-12-10T07:42:27;4.33;;;3.23;;
12120;SDS011;6124;59.460;17.908;2022-12-10T07:44:54;5.37;;;2.90;;
12120;SDS011;6124;59.460;17.908;2022-12-10T07:47:23;7.77;;;5.03;;
12120;SDS011;6124;59.460;17.908;2022-12-10T07:49:50;7.47;;;4.50;;
12120;SDS011;6124;59.460;17.908;2022-12-10T07:52:18;8.20;;;4.90;;
12120;SDS011;6124;59.460;17.908;2022-12-10T07:54:45;7.07;;;4.23;;
12120;SDS011;6124;59.460;17.908;2022-12-10T07:57:12;7.10;;;4.30;;
12120;SDS011;6124;59.460;17.908;2022-12-10T07:59:40;5.20;;;3.70;;
12120;SDS011;6124;59.460;17.908;2022-12-10T08:02:08;5.07;;;3.93;;
12120;SDS011;6124;59.460;17.908;2022-12-10T08:04:36;5.80;;;3.90;;
12120;SDS011;6124;59.460;17.908;2022-12-10T08:07:03;6.73;;;3.90;;
12120;SDS011;6124;59.460;17.908;2022-12-10T08:09:32;5.10;;;3.47;;
12120;SDS011;6124;59.460;17.908;2022-12-10T08:12:00;5.53;;;3.70;;
12120;SDS011;6124;59.460;17.908;2022-12-10T08:14:27;5.07;;;3.80;;
12120;SDS011;6124;59.460;17.908;2022-12-10T08:16:55;4.83;;;3.90;;
12120;SDS011;6124;59.460;17.908;2022-12-10T08:19:22;6.43;;;4.43;;
12120;SDS011;6124;59.460;17.908;2022-12-10T08:21:52;5.67;;;3.37;;
12120;SDS011;6124;59.460;17.908;2022-12-10T08:24:19;6.00;;;4.50;;
12120;SDS011;6124;59.460;17.908;2022-12-10T08:26:46;6.07;;;4.10;;
12120;SDS011;6124;59.460;17.908;2022-12-10T08:29:13;8.33;;;4.93;;
12120;SDS011;6124;59.460;17.908;2022-12-10T08:31:41;9.17;;;5.17;;
12120;SDS011;6124;59.460;17.908;2022-12-10T08:34:10;6.50;;;4.90;;
12120;SDS011;6124;59.460;17.908;2022-12-10T08:36:38;6.43;;;3.73;;
12120;SDS011;6124;59.460;17.908;2022-12-10T08:39:07;6.07;;;4.20;;
12120;SDS011;6124;59.460;17.908;2022-12-10T08:41:35;5.93;;;4.10;;
12120;SDS011;6124;59.460;17.908;2022-12-10T08:44:03;6.40;;;4.00;;
12120;SDS011;6124;59.460;17.908;2022-12-10T08:46:30;6.73;;;4.60;;
12120;SDS011;6124;59.460;17.908;2022-12-10T08:48:58;6.03;;;3.93;;
12120;SDS011;6124;59.460;17.908;2022-12-10T08:51:25;5.93;;;3.83;;
12120;SDS011;6124;59.460;17.908;2022-12-10T08:53:52;6.50;;;3.87;;
12120;SDS011;6124;59.460;17.908;2022-12-10T08:56:21;6.03;;;3.87;;
12120;SDS011;6124;59.460;17.908;2022-12-10T08:58:48;5.97;;;3.80;;
12120;SDS011;6124;59.460;17.908;2022-12-10T09:01:17;6.30;;;4.20;;
12120;SDS011;6124;59.460;17.908;2022-12-10T09:03:44;6.23;;;3.93;;
12120;SDS011;6124;59.460;17.908;2022-12-10T09:06:12;6.43;;;4.10;;
12120;SDS011;6124;59.460;17.908;2022-12-10T09:08:40;4.80;;;3.73;;
12120;SDS011;6124;59.460;17.908;2022-12-10T09:11:08;6.20;;;4.40;;
12120;SDS011;6124;59.460;17.908;2022-12-10T09:13:37;4.83;;;3.63;;
12120;SDS011;6124;59.460;17.908;2022-12-10T09:16:04;7.17;;;4.50;;
12120;SDS011;6124;59.460;17.908;2022-12-10T09:18:32;7.27;;;4.37;;
12120;SDS011;6124;59.460;17.908;2022-12-10T09:20:59;8.57;;;3.97;;
12120;SDS011;6124;59.460;17.908;2022-12-10T09:23:26;6.20;;;4.10;;
12120;SDS011;6124;59.460;17.908;2022-12-10T09:25:53;6.60;;;4.20;;
12120;SDS011;6124;59.460;17.908;2022-12-10T09:28:21;7.87;;;5.13;;
12120;SDS011;6124;59.460;17.908;2022-12-10T09:30:55;6.50;;;4.07;;
12120;SDS011;6124;59.460;17.908;2022-12-10T09:33:22;5.80;;;3.70;;
12120;SDS011;6124;59.460;17.908;2022-12-10T09:35:50;5.83;;;4.03;;
12120;SDS011;6124;59.460;17.908;2022-12-10T09:38:17;5.43;;;3.47;;
12120;SDS011;6124;59.460;17.908;2022-12-10T09:40:45;5.50;;;3.83;;
12120;SDS011;6124;59.460;17.908;2022-12-10T09:43:15;4.57;;;3.60;;
12120;SDS011;6124;59.460;17.908;2022-12-10T09:45:48;7.07;;;3.80;;
12120;SDS011;6124;59.460;17.908;2022-12-10T09:48:25;5.33;;;3.47;;
12120;SDS011;6124;59.460;17.908;2022-12-10T09:50:55;5.20;;;3.67;;
12120;SDS011;6124;59.460;17.908;2022-12-10T09:53:25;6.50;;;4.17;;
12120;SDS011;6124;59.460;17.908;2022-12-10T09:55:54;4.23;;;3.77;;
12120;SDS011;6124;59.460;17.908;2022-12-10T09:58:22;6.97;;;4.30;;
12120;SDS011;6124;59.460;17.908;2022-12-10T10:00:51;6.30;;;4.73;;
12120;SDS011;6124;59.460;17.908;2022-12-10T10:03:21;7.47;;;4.63;;
12120;SDS011;6124;59.460;17.908;2022-12-10T10:05:50;6.33;;;4.23;;
12120;SDS011;6124;59.460;17.908;2022-12-10T10:08:21;4.97;;;3.77;;
12120;SDS011;6124;59.460;17.908;2022-12-10T10:10:50;6.20;;;3.73;;
12120;SDS011;6124;59.460;17.908;2022-12-10T10:13:18;4.70;;;3.40;;
12120;SDS011;6124;59.460;17.908;2022-12-10T10:15:49;5.87;;;4.13;;
12120;SDS011;6124;59.460;17.908;2022-12-10T10:18:21;10.30;;;6.03;;
12120;SDS011;6124;59.460;17.908;2022-12-10T10:20:51;15.93;;;9.20;;
12120;SDS011;6124;59.460;17.908;2022-12-10T10:23:18;9.67;;;5.40;;
12120;SDS011;6124;59.460;17.908;2022-12-10T10:25:46;7.80;;;4.87;;
12120;SDS011;6124;59.460;17.908;2022-12-10T10:28:16;6.13;;;4.47;;
12120;SDS011;6124;59.460;17.908;2022-12-10T10:30:44;7.27;;;4.13;;
12120;SDS011;6124;59.460;17.908;2022-12-10T10:33:12;4.43;;;3.40;;
12120;SDS011;6124;59.460;17.908;2022-12-10T10:35:43;5.00;;;3.20;;
12120;SDS011;6124;59.460;17.908;2022-12-10T10:38:18;4.80;;;3.43;;
12120;SDS011;6124;59.460;17.908;2022-12-10T10:40:46;5.03;;;3.30;;
12120;SDS011;6124;59.460;17.908;2022-12-10T10:43:17;6.23;;;4.07;;
12120;SDS011;6124;59.460;17.908;2022-12-10T10:45:47;6.03;;;3.73;;
12120;SDS011;6124;59.460;17.908;2022-12-10T10:48:16;5.53;;;3.70;;
12120;SDS011;6124;59.460;17.908;2022-12-10T10:50:45;5.27;;;3.50;;
12120;SDS011;6124;59.460;17.908;2022-12-10T10:53:24;4.63;;;3.13;;
12120;SDS011;6124;59.460;17.908;2022-12-10T10:55:53;5.50;;;3.33;;
12120;SDS011;6124;59.460;17.908;2022-12-10T10:58:22;6.37;;;3.93;;
12120;SDS011;6124;59.460;17.908;2022-12-10T11:00:53;4.43;;;3.47;;
12120;SDS011;6124;59.460;17.908;2022-12-10T11:03:20;5.07;;;3.43;;
12120;SDS011;6124;59.460;17.908;2022-12-10T11:05:48;5.23;;;3.90;;
12120;SDS011;6124;59.460;17.908;2022-12-10T11:08:16;6.30;;;3.80;;
12120;SDS011;6124;59.460;17.908;2022-12-10T11:10:48;6.97;;;3.70;;
12120;SDS011;6124;59.460;17.908;2022-12-10T11:13:19;4.93;;;3.30;;
12120;SDS011;6124;59.460;17.908;2022-12-10T11:15:47;6.20;;;3.40;;
12120;SDS011;6124;59.460;17.908;2022-12-10T11:18:24;5.10;;;3.43;;
12120;SDS011;6124;59.460;17.908;2022-12-10T11:21:03;4.83;;;3.50;;
12120;SDS011;6124;59.460;17.908;2022-12-10T11:23:31;4.60;;;3.67;;
12120;SDS011;6124;59.460;17.908;2022-12-10T11:26:05;5.50;;;4.03;;
12120;SDS011;6124;59.460;17.908;2022-12-10T11:28:40;5.80;;;3.80;;
12120;SDS011;6124;59.460;17.908;2022-12-10T11:31:13;8.93;;;4.80;;
12120;SDS011;6124;59.460;17.908;2022-12-10T11:33:45;24.30;;;8.70;;
12120;SDS011;6124;59.460;17.908;2022-12-10T11:36:17;11.53;;;5.17;;
12120;SDS011;6124;59.460;17.908;2022-12-10T11:38:49;6.50;;;4.00;;
12120;SDS011;6124;59.460;17.908;2022-12-10T11:41:21;5.07;;;3.97;;
12120;SDS011;6124;59.460;17.908;2022-12-10T11:43:54;5.17;;;3.63;;
12120;SDS011;6124;59.460;17.908;2022-12-10T11:46:35;7.20;;;4.03;;
12120;SDS011;6124;59.460;17.908;2022-12-10T11:49:09;5.17;;;3.77;;
12120;SDS011;6124;59.460;17.908;2022-12-10T11:51:40;4.40;;;3.30;;
12120;SDS011;6124;59.460;17.908;2022-12-10T11:54:14;5.03;;;3.50;;
12120;SDS011;6124;59.460;17.908;2022-12-10T11:56:48;5.57;;;3.53;;
12120;SDS011;6124;59.460;17.908;2022-12-10T11:59:19;4.83;;;3.13;;
12120;SDS011;6124;59.460;17.908;2022-12-10T12:01:52;5.73;;;3.70;;
12120;SDS011;6124;59.460;17.908;2022-12-10T12:04:25;4.67;;;3.50;;
12120;SDS011;6124;59.460;17.908;2022-12-10T12:06:57;5.37;;;3.53;;
12120;SDS011;6124;59.460;17.908;2022-12-10T12:09:29;5.33;;;3.17;;
12120;SDS011;6124;59.460;17.908;2022-12-10T12:12:03;4.70;;;3.43;;
12120;SDS011;6124;59.460;17.908;2022-12-10T12:14:34;5.20;;;3.67;;
12120;SDS011;6124;59.460;17.908;2022-12-10T12:17:04;5.40;;;3.53;;
12120;SDS011;6124;59.460;17.908;2022-12-10T12:19:36;6.77;;;3.30;;
12120;SDS011;6124;59.460;17.908;2022-12-10T12:22:06;5.97;;;3.30;;
12120;SDS011;6124;59.460;17.908;2022-12-10T12:24:35;5.97;;;3.50;;
12120;SDS011;6124;59.460;17.908;2022-12-10T12:27:05;5.70;;;3.77;;
12120;SDS011;6124;59.460;17.908;2022-12-10T12:29:35;7.33;;;4.23;;
12120;SDS011;6124;59.460;17.908;2022-12-10T12:32:09;9.00;;;5.10;;
12120;SDS011;6124;59.460;17.908;2022-12-10T12:34:42;5.90;;;3.47;;
12120;SDS011;6124;59.460;17.908;2022-12-10T12:37:12;6.53;;;3.90;;
12120;SDS011;6124;59.460;17.908;2022-12-10T12:39:43;7.70;;;4.40;;
12120;SDS011;6124;59.460;17.908;2022-12-10T12:42:16;7.60;;;4.50;;
12120;SDS011;6124;59.460;17.908;2022-12-10T12:44:47;7.80;;;4.37;;
12120;SDS011;6124;59.460;17.908;2022-12-10T12:47:21;5.73;;;4.00;;
12120;SDS011;6124;59.460;17.908;2022-12-10T12:49:49;7.50;;;3.70;;
12120;SDS011;6124;59.460;17.908;2022-12-10T12:52:20;5.03;;;3.60;;
12120;SDS011;6124;59.460;17.908;2022-12-10T12:54:50;5.53;;;3.63;;
12120;SDS011;6124;59.460;17.908;2022-12-10T12:57:20;5.37;;;3.10;;
12120;SDS011;6124;59.460;17.908;2022-12-10T12:59:54;6.57;;;3.20;;
12120;SDS011;6124;59.460;17.908;2022-12-10T13:02:39;5.57;;;3.40;;
12120;SDS011;6124;59.460;17.908;2022-12-10T13:05:12;4.90;;;3.50;;
12120;SDS011;6124;59.460;17.908;2022-12-10T13:07:39;6.70;;;3.70;;
12120;SDS011;6124;59.460;17.908;2022-12-10T13:13:07;7.57;;;3.83;;
12120;SDS011;6124;59.460;17.908;2022-12-10T13:15:42;4.53;;;3.67;;
12120;SDS011;6124;59.460;17.908;2022-12-10T13:21:19;6.70;;;3.70;;
12120;SDS011;6124;59.460;17.908;2022-12-10T13:23:52;7.80;;;4.33;;
12120;SDS011;6124;59.460;17.908;2022-12-10T13:26:24;7.37;;;4.43;;
12120;SDS011;6124;59.460;17.908;2022-12-10T13:28:53;6.17;;;3.97;;
12120;SDS011;6124;59.460;17.908;2022-12-10T13:31:36;6.67;;;4.30;;
12120;SDS011;6124;59.460;17.908;2022-12-10T13:34:05;7.30;;;3.90;;
12120;SDS011;6124;59.460;17.908;2022-12-10T13:36:34;5.23;;;3.43;;
12120;SDS011;6124;59.460;17.908;2022-12-10T13:39:12;8.43;;;4.20;;
12120;SDS011;6124;59.460;17.908;2022-12-10T13:44:49;5.53;;;3.60;;
12120;SDS011;6124;59.460;17.908;2022-12-10T13:47:26;4.87;;;3.37;;
12120;SDS011;6124;59.460;17.908;2022-12-10T13:49:58;5.33;;;3.70;;
12120;SDS011;6124;59.460;17.908;2022-12-10T13:52:28;6.97;;;4.30;;
12120;SDS011;6124;59.460;17.908;2022-12-10T13:57:52;4.60;;;3.27;;
12120;SDS011;6124;59.460;17.908;2022-12-10T14:00:23;4.97;;;3.47;;
12120;SDS011;6124;59.460;17.908;2022-12-10T14:03:00;6.10;;;3.30;;
12120;SDS011;6124;59.460;17.908;2022-12-10T14:05:37;4.83;;;3.37;;
12120;SDS011;6124;59.460;17.908;2022-12-10T14:08:08;5.73;;;3.10;;
12120;SDS011;6124;59.460;17.908;2022-12-10T14:10:38;8.00;;;4.20;;
12120;SDS011;6124;59.460;17.908;2022-12-10T14:13:10;7.27;;;4.10;;
12120;SDS011;6124;59.460;17.908;2022-12-10T14:15:40;6.07;;;3.13;;
12120;SDS011;6124;59.460;17.908;2022-12-10T14:18:09;5.27;;;3.10;;
12120;SDS011;6124;59.460;17.908;2022-12-10T14:20:39;5.97;;;3.37;;
12120;SDS011;6124;59.460;17.908;2022-12-10T14:23:19;5.27;;;3.43;;
12120;SDS011;6124;59.460;17.908;2022-12-10T14:26:03;4.53;;;3.10;;
12120;SDS011;6124;59.460;17.908;2022-12-10T14:28:31;4.60;;;3.27;;
12120;SDS011;6124;59.460;17.908;2022-12-10T14:31:00;6.47;;;3.43;;
12120;SDS011;6124;59.460;17.908;2022-12-10T14:33:28;5.47;;;3.33;;
12120;SDS011;6124;59.460;17.908;2022-12-10T14:35:56;4.33;;;3.40;;
12120;SDS011;6124;59.460;17.908;2022-12-10T14:38:25;7.07;;;3.47;;
12120;SDS011;6124;59.460;17.908;2022-12-10T14:40:54;5.27;;;3.20;;
12120;SDS011;6124;59.460;17.908;2022-12-10T14:43:22;7.53;;;4.57;;
12120;SDS011;6124;59.460;17.908;2022-12-10T14:45:51;6.50;;;3.90;;
12120;SDS011;6124;59.460;17.908;2022-12-10T14:48:22;8.23;;;4.17;;
12120;SDS011;6124;59.460;17.908;2022-12-10T14:50:50;6.93;;;4.20;;
12120;SDS011;6124;59.460;17.908;2022-12-10T14:53:17;9.37;;;4.70;;
12120;SDS011;6124;59.460;17.908;2022-12-10T14:55:45;8.83;;;4.67;;
12120;SDS011;6124;59.460;17.908;2022-12-10T14:58:14;7.97;;;5.03;;
12120;SDS011;6124;59.460;17.908;2022-12-10T15:00:43;9.50;;;5.10;;
12120;SDS011;6124;59.460;17.908;2022-12-10T15:03:11;7.80;;;4.70;;
12120;SDS011;6124;59.460;17.908;2022-12-10T15:05:52;10.00;;;5.23;;
12120;SDS011;6124;59.460;17.908;2022-12-10T15:08:20;9.10;;;5.23;;
12120;SDS011;6124;59.460;17.908;2022-12-10T15:10:50;8.20;;;4.80;;
12120;SDS011;6124;59.460;17.908;2022-12-10T15:13:18;6.77;;;4.70;;
12120;SDS011;6124;59.460;17.908;2022-12-10T15:15:47;6.73;;;4.73;;